Latest Weather Observations for Mount Crawford

IDS60801

Issued at 12:32 pm CDT Thursday 8 December 2016 (issued every 30 minutes, with the page automatically refreshed every 10 minutes)

About weather observations | Map of weather stations | Latest weather observations for SA | Other Formats
Station Details ID: 023878 Name: MOUNT CRAWFORD AWS Lat: -34.73 Lon: 138.93 Height: 525.0 m
Data from the previous 72 hours. | See also: Recent months at Mount Crawford
Date/Time
CDT
Temp
°C
App
Temp
°C
Dew
Point
°C
Rel
Hum
%
Delta-T
°C
Wind Press
QNH
hPa
Press
MSL
hPa
Rain since
9am
mm
Dir  Spd
km/h
Gust
km/h
Spd
kts
Gust
kts
08/12:00pm 13.8 4.4 7.3 65 3.3 W 46 65 25 35 1008.1 1006.2 0.0
08/11:30am 13.1 4.5 8.2 72 2.5 W 43 76 23 41 1007.9 1006.0 0.0
08/11:00am 13.0 5.4 7.5 69 2.8 W 37 63 20 34 1007.7 1005.8 0.0
08/10:30am 13.5 4.8 7.5 67 3.0 W 43 67 23 36 1007.1 1005.2 0.0
08/10:00am 12.9 5.3 9.0 77 2.0 W 39 57 21 31 1007.0 1005.1 0.0
08/09:30am 11.6 2.7 9.2 85 1.2 W 46 70 25 38 1006.5 1004.6 0.0
08/09:00am 11.5 3.1 8.9 84 1.3 W 43 67 23 36 1006.2 1004.3 21.8
08/08:30am 11.3 3.3 9.0 86 1.2 W 41 67 22 36 1006.1 1004.2 21.8
08/08:00am 11.1 3.9 9.0 87 1.1 W 37 61 20 33 1005.7 1003.8 21.8
08/07:30am 10.7 3.2 9.3 91 0.7 W 39 67 21 36 1005.1 1003.2 21.8
08/07:09am 10.4 4.1 9.6 95 0.4 W 33 54 18 29 1004.8 1002.9 21.8
08/07:00am 10.4 3.7 9.8 96 0.3 W 35 50 19 27 1004.6 1002.7 21.8
08/06:30am 10.3 2.2 10.0 98 0.2 W 43 61 23 33 1003.8 1001.9 21.8
08/06:01am 10.1 3.1 10.0 99 0.1 W 37 56 20 30 1003.4 1001.5 21.8
08/06:00am 10.1 2.7 10.0 99 0.1 W 39 56 21 30 1003.4 1001.5 21.8
08/05:30am 10.4 3.9 10.4 100 0.0 W 35 57 19 31 1003.4 1001.5 21.8
08/05:00am 11.5 4.2 11.5 100 0.0 WSW 41 65 22 35 1003.2 1001.2 21.8
08/04:38am 12.4 6.5 12.4 100 0.0 W 35 59 19 32 1002.4 1000.5 21.4
08/04:30am 13.2 7.9 13.2 100 0.0 W 33 48 18 26 1002.5 1000.6 21.2
08/04:01am 13.3 7.7 13.3 100 0.0 W 35 56 19 30 1002.4 1000.5 21.2
08/04:00am 13.4 7.8 13.4 100 0.0 W 35 50 19 27 1002.5 1000.6 21.2
08/03:32am 14.5 7.8 14.5 100 0.0 W 43 61 23 33 1002.4 1000.5 18.4
08/03:30am 14.5 7.6 14.5 100 0.0 W 44 61 24 33 1002.3 1000.4 17.2
08/03:01am 15.4 10.1 15.4 100 0.0 WNW 37 61 20 33 1002.2 1000.3 15.2
08/03:00am 15.5 10.7 15.5 100 0.0 WNW 35 52 19 28 1002.1 1000.2 15.2
08/02:35am 16.4 12.9 16.4 100 0.0 WNW 30 48 16 26 1002.0 1000.1 14.2
08/02:30am 16.4 12.9 16.4 100 0.0 WNW 30 41 16 22 1002.1 1000.2 14.2
08/02:00am 17.5 13.1 17.5 100 0.0 NW 37 56 20 30 1002.1 1000.2 12.6
08/01:30am 17.3 12.0 17.3 100 0.0 WNW 41 61 22 33 1002.6 1000.7 8.6
08/01:00am 17.6 12.4 17.4 99 0.1 WNW 41 61 22 33 1002.8 1000.9 5.8
08/12:43am 18.2 13.6 16.0 87 1.3 NW 35 61 19 33 1003.0 1001.0 4.0
08/12:30am 21.3 16.5 14.0 63 4.4 NNW 32 43 17 23 1001.5 999.5 2.2
08/12:09am 22.7 17.6 13.2 55 5.6 NNW 32 52 17 28 1001.8 999.9 1.6
08/12:00am 23.4 17.6 12.7 51 6.3 N 35 48 19 26 1001.5 999.5 1.6
 
Date/Time
CDT
Temp
°C
App
Temp
°C
Dew
Point
°C
Rel
Hum
%
Delta-T
°C
Wind Press
QNH
hPa
Press
MSL
hPa
Rain since
9am
mm
Dir  Spd
km/h
Gust
km/h
Spd
kts
Gust
kts
07/11:30pm 20.6 17.9 14.7 69 3.6 NNE 22 37 12 20 1001.1 999.1 1.6
07/11:21pm 19.8 17.9 15.2 75 2.8 NNE 19 24 10 13 1001.5 999.5 1.6
07/11:00pm 20.4 17.0 14.7 70 3.4 WNW 26 37 14 20 1003.5 1001.6 1.4
07/10:48pm 22.2 16.9 14.1 60 4.8 NNW 35 63 19 34 1003.8 1001.9 0.0
07/10:38pm 23.8 16.4 12.4 48 6.7 N 43 67 23 36 1003.1 1001.1 0.0
07/10:30pm 25.4 18.3 10.8 40 8.4 N 39 56 21 30 1002.4 1000.5 0.0
07/10:00pm 25.9 20.0 10.5 38 8.8 N 32 56 17 30 1003.0 1001.0 0.0
07/09:52pm 25.9 20.4 10.5 38 8.8 N 30 56 16 30 1003.1 1001.1 0.0
07/09:30pm 26.0 21.0 11.0 39 8.7 N 28 43 15 23 1003.6 1001.7 0.0
07/09:00pm 25.3 21.0 10.7 40 8.4 N 24 37 13 20 1004.1 1002.2 0.0
07/08:30pm 25.3 21.5 11.1 41 8.2 N 22 32 12 17 1004.7 1002.8 0.0
07/08:00pm 25.4 22.0 11.2 41 8.2 N 20 32 11 17 1005.1 1003.2 0.0
07/07:30pm 25.9 22.5 11.3 40 8.5 N 20 26 11 14 1005.5 1003.6 0.0
07/07:00pm 25.7 22.5 11.8 42 8.1 N 20 28 11 15 1005.8 1003.9 0.0
07/06:30pm 25.5 22.5 12.4 44 7.7 N 20 33 11 18 1005.9 1004.0 0.0
07/06:00pm 24.8 22.0 12.7 47 7.2 N 19 26 10 14 1006.4 1004.5 0.0
07/05:30pm 25.9 22.9 12.7 44 7.9 NNW 20 30 11 16 1007.2 1005.3 0.0
07/05:00pm 25.5 24.4 14.3 50 6.8 WNW 13 19 7 10 1007.8 1005.9 0.0
07/04:30pm 24.3 22.7 13.8 52 6.3 WNW 15 20 8 11 1008.6 1006.8 0.0
07/04:00pm 23.1 19.4 12.7 52 6.1 WNW 24 41 13 22 1009.5 1007.6 0.0
07/03:31pm 24.2 19.0 11.5 45 7.3 NW 30 52 16 28 1009.8 1007.9 0.0
07/03:30pm 24.2 19.0 11.5 45 7.3 NW 30 52 16 28 1009.8 1007.9 0.0
07/03:28pm 24.5 19.7 11.8 45 7.4 WNW 28 52 15 28 1009.8 1007.9 0.0
07/03:27pm 24.7 20.0 12.0 45 7.4 WNW 28 52 15 28 1009.7 1007.8 0.0
07/03:00pm 25.9 22.2 10.1 37 9.0 WNW 20 33 11 18 1009.8 1007.9 0.0
07/02:30pm 25.0 21.0 10.5 40 8.3 WNW 22 35 12 19 1010.4 1008.6 0.0
07/02:00pm 24.5 20.8 10.0 40 8.2 NW 20 32 11 17 1010.8 1009.0 0.0
07/01:30pm 26.0 20.4 10.2 37 9.0 NNW 30 44 16 24 1011.4 1009.5 0.0
07/01:00pm 26.0 21.3 10.6 38 8.8 NW 26 37 14 20 1011.9 1010.1 0.0
07/12:30pm 25.4 21.8 10.4 39 8.6 N 20 32 11 17 1012.6 1010.8 0.0
07/12:00pm 24.3 20.3 10.6 42 7.8 N 22 35 12 19 1013.2 1011.3 0.0
07/11:30am 22.1 18.5 9.9 46 6.8 N 19 24 10 13 1013.7 1011.9 0.0
07/11:00am 21.0 16.3 9.3 47 6.4 N 24 33 13 18 1014.2 1012.4 0.0
07/10:30am 20.5 17.2 10.9 54 5.4 N 19 28 10 15 1014.3 1012.5 0.0
07/10:00am 19.9 16.5 9.2 50 5.8 N 17 24 9 13 1014.6 1012.8 0.0
07/09:30am 18.4 16.4 10.3 59 4.4 NE 11 17 6 9 1014.9 1013.1 0.0
07/09:00am 16.1 12.8 9.5 65 3.5 NE 17 20 9 11 1014.9 1013.1 0.0
07/08:30am 14.6 11.7 9.8 73 2.6 ENE 15 19 8 10 1014.9 1013.1 0.0
07/08:00am 12.9 9.5 9.0 77 2.0 ENE 17 20 9 11 1014.8 1013.0 0.0
07/07:30am 11.8 8.6 8.3 79 1.8 E 15 19 8 10 1014.9 1013.1 0.0
07/07:00am 10.6 7.3 8.2 85 1.2 E 15 17 8 9 1014.7 1012.9 0.0
07/06:30am 9.7 6.1 8.3 91 0.7 ESE 17 20 9 11 1014.3 1012.5 0.0
07/06:00am 8.7 5.1 8.3 97 0.2 E 17 20 9 11 1014.2 1012.4 0.0
07/05:30am 8.6 5.0 8.2 97 0.2 ESE 17 19 9 10 1014.1 1012.3 0.0
07/05:00am 8.7 5.1 8.3 97 0.2 E 17 19 9 10 1013.9 1012.1 0.0
07/04:30am 8.7 4.8 8.6 99 0.0 E 19 22 10 12 1013.8 1012.0 0.0
07/04:00am 8.9 5.3 8.5 97 0.2 ESE 17 20 9 11 1013.7 1011.9 0.0
07/03:30am 9.3 5.7 8.5 95 0.4 ESE 17 20 9 11 1014.0 1012.2 0.0
07/03:00am 9.6 5.6 8.4 92 0.6 ESE 19 20 10 11 1014.0 1012.2 0.0
07/02:30am 10.4 6.8 8.5 88 1.0 ESE 17 17 9 9 1014.1 1012.3 0.0
07/02:00am 10.2 6.6 8.5 89 0.9 ESE 17 19 9 10 1014.6 1012.8 0.0
07/01:30am 10.5 7.6 8.3 86 1.1 ESE 13 15 7 8 1015.3 1013.5 0.0
07/01:00am 10.6 7.3 8.2 85 1.2 ESE 15 17 8 9 1015.5 1013.7 0.0
07/12:30am 10.4 7.2 8.3 87 1.1 ESE 15 15 8 8 1015.7 1013.9 0.0
07/12:00am 10.2 6.9 8.1 87 1.0 ESE 15 17 8 9 1016.0 1014.2 0.0
 
Date/Time
CDT
Temp
°C
App
Temp
°C
Dew
Point
°C
Rel
Hum
%
Delta-T
°C
Wind Press
QNH
hPa
Press
MSL
hPa
Rain since
9am
mm
Dir  Spd
km/h
Gust
km/h
Spd
kts
Gust
kts
06/11:30pm 10.5 7.5 7.9 84 1.3 SE 13 15 7 8 1016.1 1014.3 0.0
06/11:00pm 10.8 7.8 7.9 82 1.4 ESE 13 15 7 8 1016.3 1014.5 0.0
06/10:30pm 11.6 8.6 7.9 78 1.9 SE 13 17 7 9 1016.4 1014.6 0.0
06/10:00pm 12.7 10.2 8.0 73 2.4 SE 11 13 6 7 1016.5 1014.7 0.0
06/09:30pm 14.1 11.0 5.5 56 4.2 SW 11 13 6 7 1016.7 1014.9 0.0
06/09:00pm 14.3 10.8 5.4 55 4.3 WSW 13 15 7 8 1016.5 1014.7 0.0
06/08:30pm 14.4 11.3 5.7 56 4.2 WSW 11 13 6 7 1016.4 1014.6 0.0
06/08:00pm 16.2 12.6 4.9 47 5.5 W 13 15 7 8 1016.1 1014.3 0.0
06/07:30pm 17.3 13.0 5.3 45 5.9 W 17 20 9 11 1016.1 1014.3 0.0
06/07:00pm 18.3 14.6 8.0 51 5.4 W 17 22 9 12 1015.8 1014.0 0.0
06/06:30pm 18.9 14.8 7.7 48 5.9 WNW 19 26 10 14 1015.7 1013.9 0.0
06/06:00pm 19.7 15.4 7.8 46 6.3 W 20 26 11 14 1015.3 1013.5 0.0
06/05:30pm 20.0 17.0 7.7 45 6.5 NW 13 20 7 11 1014.9 1013.1 0.0
06/05:00pm 20.1 17.1 7.8 45 6.5 W 13 22 7 12 1015.3 1013.5 0.0
06/04:30pm 19.6 15.8 7.7 46 6.3 W 17 28 9 15 1015.5 1013.7 0.0
06/04:00pm 19.6 15.8 7.4 45 6.4 W 17 24 9 13 1015.5 1013.7 0.0
06/03:30pm 19.5 16.5 7.6 46 6.2 NW 13 22 7 12 1015.6 1013.8 0.0
06/03:00pm 18.1 14.0 6.0 45 6.1 WNW 17 26 9 14 1016.0 1014.2 0.0
06/02:30pm 19.0 15.1 5.5 41 6.8 W 15 22 8 12 1016.2 1014.4 0.0
06/02:00pm 19.1 15.5 6.9 45 6.3 W 15 24 8 13 1016.0 1014.2 0.0
06/01:30pm 19.2 16.6 6.3 43 6.6 WNW 9 17 5 9 1015.9 1014.1 0.0
06/01:00pm 18.1 14.8 6.3 46 6.0 WSW 13 20 7 11 1015.8 1014.0 0.0
06/12:30pm 19.1 16.4 7.2 46 6.2 W 11 22 6 12 1016.0 1014.2 0.0
06/12:00pm 17.6 13.4 5.5 45 6.0 W 17 22 9 12 1016.1 1014.3 0.0
06/11:30am 18.2 14.8 5.8 44 6.2 WSW 13 24 7 13 1016.2 1014.4 0.0
06/11:00am 17.6 14.5 7.1 50 5.4 WNW 13 20 7 11 1016.5 1014.7 0.0
06/10:30am 16.4 13.4 7.6 56 4.5 WSW 13 19 7 10 1016.2 1014.4 0.0
06/10:00am 16.2 13.2 7.9 58 4.3 WSW 13 24 7 13 1016.2 1014.4 0.0
06/09:30am 15.1 13.5 10.1 72 2.7 ESE 9 15 5 8 1016.2 1014.4 0.0
06/09:00am 13.8 11.3 9.6 76 2.2 E 13 17 7 9 1016.1 1014.3 0.0
06/08:30am 12.3 9.5 10.0 86 1.2 ESE 15 20 8 11 1016.0 1014.2 0.0
06/08:00am 10.6 8.1 9.7 94 0.5 SE 13 19 7 10 1016.0 1014.2 0.0
06/07:30am 10.0 7.1 9.5 97 0.3 SE 15 20 8 11 1016.1 1014.3 0.0
06/07:00am 9.2 6.2 9.1 99 0.1 SE 15 19 8 10 1015.5 1013.7 0.0
06/06:30am 9.2 6.2 9.1 99 0.1 SE 15 20 8 11 1014.9 1013.1 0.0
06/06:00am 9.6 6.6 9.3 98 0.2 SSE 15 19 8 10 1014.3 1012.5 0.0
06/05:30am 9.7 7.4 8.9 95 0.4 SSE 11 15 6 8 1014.0 1012.2 0.0
06/05:00am 10.1 7.8 8.9 92 0.6 SSE 11 13 6 7 1013.4 1011.5 0.0
06/04:30am 11.1 8.7 8.7 85 1.2 SW 11 15 6 8 1013.6 1011.8 0.0
06/04:00am 10.4 8.1 9.0 91 0.7 SW 11 15 6 8 1013.9 1012.1 0.0
06/03:30am 10.4 7.8 9.2 92 0.6 SSW 13 17 7 9 1013.6 1011.8 0.0
06/03:00am 9.8 6.4 9.3 97 0.3 SSE 17 20 9 11 1013.1 1011.2 0.0
06/02:30am 9.9 6.9 9.1 95 0.4 SSE 15 20 8 11 1013.3 1011.4 0.0
06/02:00am 10.0 6.9 8.9 93 0.6 SSE 15 19 8 10 1013.5 1011.7 0.0
06/01:30am 10.2 6.7 8.6 90 0.8 SSE 17 19 9 10 1013.8 1012.0 0.0
06/01:00am 10.3 6.8 8.6 89 0.9 SSE 17 20 9 11 1013.9 1012.1 0.0
06/12:30am 10.4 6.5 8.5 88 1.0 SSE 19 22 10 12 1013.9 1012.1 0.0
06/12:00am 10.3 7.2 8.7 90 0.8 SE 15 19 8 10 1014.0 1012.2 0.0
 
Date/Time
CDT
Temp
°C
App
Temp
°C
Dew
Point
°C
Rel
Hum
%
Delta-T
°C
Wind Press
QNH
hPa
Press
MSL
hPa
Rain since
9am
mm
Dir  Spd
km/h
Gust
km/h
Spd
kts
Gust
kts
05/11:30pm 10.4 7.0 9.0 91 0.7 SE 17 20 9 11 1014.2 1012.4 0.0
05/11:00pm 10.7 6.9 9.1 90 0.8 SE 19 24 10 13 1014.5 1012.7 0.0
05/10:30pm 11.1 7.1 9.0 87 1.1 SSE 20 24 11 13 1015.3 1013.5 0.0
05/10:00pm 11.4 7.4 8.4 82 1.5 SE 19 24 10 13 1014.4 1012.6 0.0
05/09:30pm 11.6 7.5 7.9 78 1.9 ESE 19 24 10 13 1014.3 1012.5 0.0
05/09:00pm 11.9 7.2 7.6 75 2.1 ESE 22 28 12 15 1014.0 1012.2 0.0
05/08:30pm 12.3 7.6 7.6 73 2.4 ESE 22 30 12 16 1013.6 1011.8 0.0
05/08:00pm 12.9 7.0 7.6 70 2.7 ESE 28 41 15 22 1011.8 1010.0 0.0
05/07:30pm 13.5 8.7 7.5 67 3.0 ESE 22 33 12 18 1013.4 1011.5 0.0
05/07:00pm 14.6 10.4 8.1 65 3.3 ESE 20 30 11 16 1013.5 1011.7 0.0
05/06:30pm 15.8 12.1 8.1 60 4.0 E 17 28 9 15 1013.9 1012.1 0.0
05/06:00pm 17.2 14.7 8.4 56 4.6 ESE 11 13 6 7 1013.3 1011.4 0.0
05/05:30pm 18.4 15.6 8.4 52 5.3 SE 13 19 7 10 1012.6 1010.8 0.0
05/05:00pm 18.3 15.6 8.8 54 5.1 S 13 17 7 9 1012.7 1010.9 0.0
05/04:30pm 19.9 17.5 10.0 53 5.4 W 13 19 7 10 1013.4 1011.5 0.0
05/04:00pm 19.7 18.3 10.9 57 4.9 W 9 15 5 8 1013.5 1011.7 0.0
05/03:30pm 18.7 17.0 10.0 57 4.8 W 9 15 5 8 1013.5 1011.7 0.0
05/03:00pm 18.4 16.4 10.0 58 4.6 W 11 19 6 10 1013.4 1011.5 0.0
05/02:30pm 17.7 14.9 10.1 61 4.1 W 15 19 8 10 1013.7 1011.9 0.0
05/02:00pm 18.5 16.9 8.7 53 5.2 NNE 7 13 4 7 1013.8 1012.0 0.0
05/01:30pm 18.8 16.6 7.9 49 5.7 N 9 22 5 12 1014.5 1012.7 0.0
05/01:00pm 18.4 16.6 7.8 50 5.5 SW 7 11 4 6 1014.4 1012.6 0.0

Other Formats:

Comma delimited format used in spreadsheet applications
http://www.bom.gov.au/fwo/IDS60801/IDS60801.94678.axf

JavaScript Object Notation format (JSON) in row-major order
http://www.bom.gov.au/fwo/IDS60801/IDS60801.94678.json